Time;durP1;ratioP1;P1;durP2;ratioP2;P2;SDS_P1;SDS_P2;PMS_P1;PMS_P2;Temp;Humidity;BMP_temperature;BMP_pressure;BME280_temperature;BME280_humidity;BME280_pressure;Samples;Min_cycle;Max_cycle;Signal;HPM_P1;HPM_P2
2024/02/10 00:00:21;;;;;;;13.00;10.27;;;8.30;99.90;;;;;;5089280;28;20181;-63
2024/02/10 00:02:48;;;;;;;16.47;11.90;;;8.30;99.90;;;;;;5090952;28;20411;-64
2024/02/10 00:05:15;;;;;;;14.93;11.13;;;8.30;99.90;;;;;;5088070;28;20543;-62
2024/02/10 00:07:45;;;;;;;20.00;12.77;;;8.30;99.90;;;;;;5087621;28;20532;-62
2024/02/10 00:10:12;;;;;;;15.13;11.20;;;8.30;99.90;;;;;;5090367;28;20973;-63
2024/02/10 00:12:40;;;;;;;15.70;10.80;;;8.30;99.90;;;;;;5086258;28;20441;-64
2024/02/10 00:15:07;;;;;;;12.80;10.00;;;8.30;99.90;;;;;;5091070;28;20488;-63
2024/02/10 00:17:33;;;;;;;13.77;11.20;;;8.40;99.90;;;;;;5087875;28;20929;-63
2024/02/10 00:19:59;;;;;;;15.93;11.87;;;8.40;99.90;;;;;;5090909;28;20476;-62
2024/02/10 00:22:25;;;;;;;17.87;11.17;;;8.40;99.90;;;;;;5081470;28;20413;-64
2024/02/10 00:24:51;;;;;;;13.97;10.37;;;8.50;99.90;;;;;;5078892;28;20507;-64
2024/02/10 00:27:17;;;;;;;16.27;10.80;;;8.50;99.90;;;;;;5070474;28;20424;-61
2024/02/10 00:29:45;;;;;;;14.50;10.90;;;8.50;99.90;;;;;;5070654;28;20417;-63
2024/02/10 00:32:11;;;;;;;14.60;11.43;;;8.50;99.90;;;;;;5070441;28;20183;-62
2024/02/10 00:34:39;;;;;;;12.80;9.83;;;8.50;99.90;;;;;;5070347;28;20424;-63
2024/02/10 00:37:06;;;;;;;16.33;11.40;;;8.50;99.90;;;;;;5070591;28;20427;-63
2024/02/10 00:39:32;;;;;;;13.80;9.63;;;8.50;99.90;;;;;;5070318;28;20409;-63
2024/02/10 00:41:57;;;;;;;16.93;10.63;;;8.60;99.90;;;;;;5078738;28;20422;-63
2024/02/10 00:44:23;;;;;;;14.30;9.97;;;8.60;99.90;;;;;;5070114;28;20174;-63
2024/02/10 00:46:48;;;;;;;14.20;10.33;;;8.60;99.90;;;;;;5070267;28;20194;-63
2024/02/10 00:49:14;;;;;;;15.30;11.70;;;8.60;99.90;;;;;;5070303;28;20308;-63
2024/02/10 00:51:40;;;;;;;15.50;10.03;;;8.60;99.90;;;;;;5088873;28;20269;-63
2024/02/10 00:54:06;;;;;;;14.87;10.53;;;8.60;99.90;;;;;;5088951;28;20495;-63
2024/02/10 00:56:33;;;;;;;18.00;11.33;;;8.60;99.90;;;;;;5093700;28;20182;-63
2024/02/10 00:58:59;;;;;;;11.90;10.23;;;8.60;99.90;;;;;;5093662;28;20193;-63
2024/02/10 01:01:28;;;;;;;15.20;10.30;;;8.60;99.90;;;;;;5093982;28;20433;-63
2024/02/10 01:03:55;;;;;;;11.03;8.80;;;8.60;99.90;;;;;;5093918;28;20864;-63
2024/02/10 01:06:21;;;;;;;14.80;10.50;;;8.60;99.90;;;;;;5093469;28;20451;-61
2024/02/10 01:08:48;;;;;;;12.00;9.30;;;8.60;99.90;;;;;;5081811;28;20429;-62
2024/02/10 01:11:18;;;;;;;11.90;10.57;;;8.60;99.90;;;;;;5080959;28;20975;-63
2024/02/10 01:13:45;;;;;;;16.10;10.57;;;8.60;99.90;;;;;;5073177;28;20444;-63
2024/02/10 01:16:14;;;;;;;13.83;10.53;;;8.60;99.90;;;;;;5073326;28;20424;-63
2024/02/10 01:18:40;;;;;;;18.00;10.87;;;8.60;99.90;;;;;;5092671;28;20451;-63
2024/02/10 01:21:09;;;;;;;18.80;12.50;;;8.60;99.90;;;;;;5078829;28;20420;-62
2024/02/10 01:23:38;;;;;;;13.33;10.57;;;8.60;99.90;;;;;;5055346;28;20421;-63
2024/02/10 01:26:04;;;;;;;13.40;10.13;;;8.60;99.90;;;;;;5072968;28;20506;-62
2024/02/10 01:28:29;;;;;;;15.00;12.23;;;8.60;99.90;;;;;;5072681;28;20452;-62
2024/02/10 01:30:56;;;;;;;16.77;11.20;;;8.60;99.90;;;;;;5077803;28;20177;-63
2024/02/10 01:33:21;;;;;;;12.90;10.40;;;8.70;99.90;;;;;;5092851;28;20172;-62
2024/02/10 01:35:47;;;;;;;16.37;11.17;;;8.70;99.90;;;;;;5084988;28;20415;-64
2024/02/10 01:38:12;;;;;;;15.63;10.60;;;8.70;99.90;;;;;;5093123;28;20220;-62
2024/02/10 01:40:38;;;;;;;16.30;9.67;;;8.70;99.90;;;;;;5090646;28;20530;-62
2024/02/10 01:43:04;;;;;;;15.27;10.50;;;8.70;99.90;;;;;;5086726;28;20268;-61
2024/02/10 01:45:30;;;;;;;14.50;10.20;;;8.60;99.90;;;;;;5092749;28;20353;-62
2024/02/10 01:48:00;;;;;;;15.70;9.60;;;8.70;99.90;;;;;;5079758;28;20478;-61
2024/02/10 01:50:26;;;;;;;11.67;8.90;;;8.70;99.90;;;;;;5072593;28;20252;-62
2024/02/10 01:52:52;;;;;;;12.43;9.13;;;8.60;99.90;;;;;;5084882;28;20419;-63
2024/02/10 01:55:18;;;;;;;11.67;9.63;;;8.70;99.90;;;;;;5092674;28;20192;-62
2024/02/10 01:57:49;;;;;;;15.57;10.97;;;8.70;99.90;;;;;;5091774;28;20447;-62
2024/02/10 02:00:16;;;;;;;14.83;10.40;;;8.70;99.90;;;;;;5092881;28;20415;-64
2024/02/10 02:02:41;;;;;;;12.93;10.10;;;8.70;99.90;;;;;;5091622;28;20951;-63
2024/02/10 02:05:08;;;;;;;11.30;8.70;;;8.70;99.90;;;;;;5077602;28;20460;-63
2024/02/10 02:07:33;;;;;;;10.17;8.37;;;8.70;99.90;;;;;;5080306;28;20291;-63
2024/02/10 02:10:02;;;;;;;11.10;8.00;;;8.70;99.90;;;;;;5085634;28;20503;-63
2024/02/10 02:12:28;;;;;;;12.20;9.07;;;8.70;99.90;;;;;;5091984;28;20215;-64
2024/02/10 02:14:57;;;;;;;12.67;8.73;;;8.70;99.90;;;;;;5079356;28;20435;-63
2024/02/10 02:17:22;;;;;;;11.10;8.30;;;8.70;99.90;;;;;;5080610;28;20445;-63
2024/02/10 02:19:48;;;;;;;13.17;8.07;;;8.70;99.90;;;;;;5092150;28;20481;-64
2024/02/10 02:22:14;;;;;;;13.13;7.97;;;8.70;99.90;;;;;;5092048;28;20451;-63
2024/02/10 02:24:39;;;;;;;12.40;7.77;;;8.70;99.90;;;;;;5097760;28;20191;-63
2024/02/10 02:27:09;;;;;;;11.53;8.20;;;8.70;99.90;;;;;;5071687;28;20178;-63
2024/02/10 02:29:35;;;;;;;11.27;7.40;;;8.70;99.90;;;;;;5080472;28;20165;-63
2024/02/10 02:32:00;;;;;;;11.00;8.93;;;8.70;99.90;;;;;;5080318;28;20496;-62
2024/02/10 02:34:33;;;;;;;11.33;9.03;;;8.70;99.90;;;;;;5071909;28;21042;-64
2024/02/10 02:36:59;;;;;;;14.40;7.90;;;8.70;99.90;;;;;;5072241;28;20800;-62
2024/02/10 02:39:26;;;;;;;13.33;8.00;;;8.70;99.90;;;;;;5071806;28;20428;-62
2024/02/10 02:41:55;;;;;;;11.20;8.00;;;8.70;99.90;;;;;;5071971;28;20420;-62
2024/02/10 02:44:21;;;;;;;10.13;8.20;;;8.80;99.90;;;;;;5080473;28;20944;-62
2024/02/10 02:46:46;;;;;;;11.57;7.77;;;8.80;99.90;;;;;;5078878;28;20456;-62
2024/02/10 02:49:15;;;;;;;12.87;9.37;;;8.90;99.90;;;;;;5071474;28;20186;-62
2024/02/10 02:51:41;;;;;;;11.37;8.23;;;8.90;99.90;;;;;;5073488;28;20178;-61
2024/02/10 02:54:08;;;;;;;11.87;7.40;;;8.90;99.90;;;;;;5091587;28;21110;-63
2024/02/10 02:56:34;;;;;;;9.53;7.23;;;8.90;99.90;;;;;;5091318;28;20431;-63
2024/02/10 02:59:00;;;;;;;9.77;7.40;;;9.00;99.90;;;;;;5091405;28;20436;-63
2024/02/10 03:01:25;;;;;;;7.93;7.00;;;9.00;99.90;;;;;;5082790;28;20178;-61
2024/02/10 03:03:51;;;;;;;10.13;7.57;;;9.00;99.90;;;;;;5083042;28;20189;-63
2024/02/10 03:06:20;;;;;;;8.10;7.17;;;9.00;99.90;;;;;;5089145;28;20209;-63
2024/02/10 03:08:47;;;;;;;12.03;8.13;;;9.10;99.90;;;;;;5091741;28;20197;-62
2024/02/10 03:11:17;;;;;;;11.77;7.47;;;9.10;99.90;;;;;;5092131;28;20411;-63
2024/02/10 03:13:46;;;;;;;9.37;7.90;;;9.10;99.90;;;;;;5089551;28;20506;-63
2024/02/10 03:16:13;;;;;;;12.27;7.57;;;9.10;99.90;;;;;;5080473;28;20435;-63
2024/02/10 03:18:41;;;;;;;7.70;6.30;;;9.10;99.90;;;;;;5087731;28;20932;-63
2024/02/10 03:21:09;;;;;;;15.40;7.83;;;9.10;99.90;;;;;;5085053;28;20921;-63
2024/02/10 03:23:35;;;;;;;9.33;7.40;;;9.10;99.90;;;;;;5088378;28;20427;-62
2024/02/10 03:26:03;;;;;;;12.23;6.47;;;9.10;99.90;;;;;;5091178;28;20895;-62
2024/02/10 03:28:28;;;;;;;13.63;8.70;;;9.10;99.90;;;;;;5090712;28;20297;-63
2024/02/10 03:30:54;;;;;;;10.77;7.23;;;9.10;99.90;;;;;;5091242;28;20459;-63
2024/02/10 03:33:20;;;;;;;10.67;7.53;;;9.10;99.90;;;;;;5083449;28;20243;-62
2024/02/10 03:35:45;;;;;;;11.30;7.70;;;9.10;99.90;;;;;;5073112;28;20198;-63
2024/02/10 03:38:11;;;;;;;12.10;7.23;;;9.10;99.90;;;;;;5090819;28;20198;-63
2024/02/10 03:40:37;;;;;;;8.20;6.30;;;9.10;99.90;;;;;;5089414;28;20231;-63
2024/02/10 03:43:02;;;;;;;10.60;6.70;;;9.10;99.90;;;;;;5083619;28;20184;-63
2024/02/10 03:45:37;;;;;;;6.70;6.07;;;9.20;99.90;;;;;;5077119;28;20201;-61
2024/02/10 03:48:04;;;;;;;11.40;9.23;;;9.20;99.90;;;;;;5089690;28;20193;-63
2024/02/10 03:50:30;;;;;;;9.30;6.97;;;9.20;99.90;;;;;;5083897;28;20415;-62
2024/02/10 03:52:59;;;;;;;8.67;6.47;;;9.20;99.90;;;;;;5091648;28;20407;-63
2024/02/10 03:55:25;;;;;;;10.70;7.33;;;9.20;99.90;;;;;;5091140;28;20829;-63
2024/02/10 03:57:53;;;;;;;12.90;8.40;;;9.20;99.90;;;;;;5082854;28;20439;-63
2024/02/10 04:00:25;;;;;;;9.50;7.70;;;9.20;99.90;;;;;;5080197;28;20411;-62
2024/02/10 04:02:54;;;;;;;7.97;7.13;;;9.10;99.90;;;;;;5083260;28;20428;-61
2024/02/10 04:05:20;;;;;;;9.77;8.00;;;9.20;99.90;;;;;;5091529;28;20462;-63
2024/02/10 04:07:49;;;;;;;8.00;7.03;;;9.10;99.90;;;;;;5091268;28;20435;-63
2024/02/10 04:10:16;;;;;;;8.80;5.70;;;9.20;99.90;;;;;;5086040;28;20166;-62
2024/02/10 04:12:42;;;;;;;7.40;5.90;;;9.20;99.90;;;;;;5089590;28;20506;-63
2024/02/10 04:15:11;;;;;;;9.43;6.50;;;9.20;99.90;;;;;;5090749;28;20433;-62
2024/02/10 04:17:40;;;;;;;9.73;7.30;;;9.30;99.90;;;;;;5090730;28;20448;-63
2024/02/10 04:20:08;;;;;;;9.10;6.83;;;9.30;99.90;;;;;;5089569;28;20416;-63
2024/02/10 04:22:37;;;;;;;8.87;6.50;;;9.30;99.90;;;;;;5081439;28;20424;-62
2024/02/10 04:25:10;;;;;;;8.80;5.53;;;9.30;99.90;;;;;;5090831;28;20447;-63
2024/02/10 04:27:36;;;;;;;8.70;6.27;;;9.30;99.90;;;;;;5086495;28;20885;-62
2024/02/10 04:30:06;;;;;;;10.73;6.70;;;9.40;99.90;;;;;;5095239;28;20828;-63
2024/02/10 04:32:32;;;;;;;8.80;6.07;;;9.40;99.90;;;;;;5093442;28;20498;-62
2024/02/10 04:34:58;;;;;;;6.40;5.70;;;9.40;99.90;;;;;;5095680;28;20420;-63
2024/02/10 04:37:23;;;;;;;6.13;5.60;;;9.40;99.90;;;;;;5094655;28;20439;-63
2024/02/10 04:39:49;;;;;;;7.27;6.10;;;9.40;99.90;;;;;;5093411;28;20613;-62
2024/02/10 04:42:15;;;;;;;7.97;6.40;;;9.30;99.90;;;;;;5088915;28;20675;-62
2024/02/10 04:44:48;;;;;;;10.27;6.80;;;9.40;99.90;;;;;;5092149;28;20512;-63
2024/02/10 04:47:15;;;;;;;10.30;6.10;;;9.40;99.90;;;;;;5090879;28;20174;-63
2024/02/10 04:49:40;;;;;;;8.47;5.60;;;9.40;99.90;;;;;;5094438;28;20408;-63
2024/02/10 04:52:06;;;;;;;9.40;7.00;;;9.40;99.90;;;;;;5089848;28;20448;-62
2024/02/10 04:54:32;;;;;;;7.73;6.60;;;9.40;99.90;;;;;;5090970;28;20557;-61
2024/02/10 04:56:58;;;;;;;7.57;5.80;;;9.40;99.90;;;;;;5086001;28;20178;-61
2024/02/10 04:59:27;;;;;;;8.20;7.40;;;9.50;99.90;;;;;;5091835;28;20181;-63
2024/02/10 05:01:54;;;;;;;8.33;6.93;;;9.40;99.90;;;;;;5088017;28;20431;-63
2024/02/10 05:04:20;;;;;;;7.40;6.67;;;9.50;99.90;;;;;;5088809;28;20502;-63
2024/02/10 05:06:46;;;;;;;7.80;5.90;;;9.50;99.90;;;;;;5093526;28;20612;-63
2024/02/10 05:09:13;;;;;;;7.57;5.70;;;9.50;99.90;;;;;;5085795;28;20510;-60
2024/02/10 05:11:40;;;;;;;6.47;5.87;;;9.50;99.90;;;;;;5091419;28;20783;-62
2024/02/10 05:14:07;;;;;;;7.77;6.00;;;9.50;99.90;;;;;;5093925;28;20486;-63
2024/02/10 05:16:33;;;;;;;6.83;6.07;;;9.50;99.90;;;;;;5082407;28;20520;-63
2024/02/10 05:19:00;;;;;;;6.30;5.80;;;9.50;99.90;;;;;;5081038;28;20444;-62
2024/02/10 05:21:28;;;;;;;7.20;5.83;;;9.50;99.90;;;;;;5093990;28;20635;-62
2024/02/10 05:23:54;;;;;;;7.53;5.53;;;9.50;99.90;;;;;;5091917;28;20447;-62
2024/02/10 05:26:19;;;;;;;7.23;5.87;;;9.60;99.90;;;;;;5093787;28;20467;-62
2024/02/10 05:28:47;;;;;;;7.60;6.37;;;9.60;99.90;;;;;;5090920;28;20448;-62
2024/02/10 05:31:13;;;;;;;7.40;5.43;;;9.50;99.90;;;;;;5087409;28;20177;-62
2024/02/10 05:33:42;;;;;;;6.67;5.97;;;9.60;99.90;;;;;;5093250;28;20392;-62
2024/02/10 05:36:10;;;;;;;8.40;6.57;;;9.60;99.90;;;;;;5080679;28;20257;-63
2024/02/10 05:38:40;;;;;;;7.20;6.33;;;9.60;99.90;;;;;;5072759;28;20486;-62
2024/02/10 05:41:06;;;;;;;10.20;7.57;;;9.60;99.90;;;;;;5093875;28;20427;-61
2024/02/10 05:43:35;;;;;;;9.20;7.20;;;9.60;99.90;;;;;;5093877;28;20412;-61
2024/02/10 05:46:06;;;;;;;13.07;7.13;;;9.50;99.90;;;;;;5081081;28;20201;-61
2024/02/10 05:48:32;;;;;;;9.10;7.17;;;9.60;99.90;;;;;;5089076;28;20444;-62
2024/02/10 05:50:59;;;;;;;6.70;6.00;;;9.60;99.90;;;;;;5093358;28;20485;-63
2024/02/10 05:53:26;;;;;;;7.90;6.70;;;9.60;99.90;;;;;;5093755;28;20415;-62
2024/02/10 05:55:52;;;;;;;7.20;6.07;;;9.60;99.90;;;;;;5093445;28;20833;-62
2024/02/10 05:58:22;;;;;;;10.97;7.80;;;9.50;99.90;;;;;;5088607;28;20436;-62
2024/02/10 06:00:51;;;;;;;9.10;7.50;;;9.50;99.90;;;;;;5088930;28;20546;-62
2024/02/10 06:03:17;;;;;;;13.90;7.60;;;9.50;99.90;;;;;;5093371;28;20416;-62
2024/02/10 06:05:43;;;;;;;11.23;8.67;;;9.50;99.90;;;;;;5088174;28;20548;-60
2024/02/10 06:08:12;;;;;;;12.00;7.70;;;9.60;99.90;;;;;;5088436;28;20436;-62
2024/02/10 06:10:39;;;;;;;8.57;6.27;;;9.60;99.90;;;;;;5092973;28;20867;-63
2024/02/10 06:13:04;;;;;;;7.87;5.53;;;9.60;99.90;;;;;;5092560;28;20419;-62
2024/02/10 06:15:30;;;;;;;6.43;5.70;;;9.60;99.90;;;;;;5089282;28;20424;-62
2024/02/10 06:17:57;;;;;;;9.00;7.40;;;9.60;99.90;;;;;;5089685;28;21605;-62
2024/02/10 06:20:23;;;;;;;8.00;6.17;;;9.60;99.90;;;;;;5087382;28;20174;-61
2024/02/10 06:22:52;;;;;;;7.97;6.80;;;9.60;99.90;;;;;;5083186;28;20409;-62
2024/02/10 06:25:25;;;;;;;8.60;5.77;;;9.60;99.90;;;;;;5092686;28;20450;-61
2024/02/10 06:27:54;;;;;;;6.33;5.70;;;9.60;99.90;;;;;;5090532;28;20457;-61
2024/02/10 06:30:22;;;;;;;8.60;7.00;;;9.60;99.90;;;;;;5086219;28;20502;-61
2024/02/10 06:32:48;;;;;;;11.27;7.53;;;9.60;99.90;;;;;;5088618;28;20418;-60
2024/02/10 06:35:15;;;;;;;8.50;7.20;;;9.60;99.90;;;;;;5074620;28;21113;-63
2024/02/10 06:37:47;;;;;;;7.87;7.10;;;9.60;99.90;;;;;;5076709;28;20432;-64
2024/02/10 06:40:14;;;;;;;10.47;7.50;;;9.60;99.90;;;;;;5092430;28;20411;-63
2024/02/10 06:42:48;;;;;;;7.80;7.00;;;9.60;99.90;;;;;;5086353;28;20913;-62
2024/02/10 06:45:14;;;;;;;7.57;6.70;;;9.60;99.90;;;;;;5090603;28;20486;-63
2024/02/10 06:47:43;;;;;;;11.47;8.33;;;9.60;99.90;;;;;;5088693;28;20424;-62
2024/02/10 06:50:13;;;;;;;9.47;6.63;;;9.60;99.90;;;;;;5091700;28;20491;-62
2024/02/10 06:52:42;;;;;;;11.60;8.27;;;9.60;99.90;;;;;;5089927;28;20408;-63
2024/02/10 06:55:12;;;;;;;9.73;7.90;;;9.60;99.90;;;;;;5090812;28;20416;-62
2024/02/10 06:57:41;;;;;;;8.13;7.33;;;9.50;99.90;;;;;;5085809;28;20457;-68
2024/02/10 07:00:10;;;;;;;10.07;7.10;;;9.60;99.90;;;;;;5083487;28;20925;-63
2024/02/10 07:02:38;;;;;;;9.33;8.07;;;9.60;99.90;;;;;;5086344;28;20492;-64
2024/02/10 07:05:05;;;;;;;8.90;7.13;;;9.60;99.90;;;;;;5079999;28;20482;-63
2024/02/10 07:07:31;;;;;;;9.40;7.67;;;9.60;99.90;;;;;;5071503;28;20799;-64
2024/02/10 07:09:59;;;;;;;8.80;7.67;;;9.60;99.90;;;;;;5072743;28;20505;-64
2024/02/10 07:12:27;;;;;;;9.00;7.80;;;9.60;99.90;;;;;;5077542;28;20912;-63
2024/02/10 07:14:54;;;;;;;9.33;6.50;;;9.70;99.90;;;;;;5091595;28;20416;-64
2024/02/10 07:17:20;;;;;;;9.40;7.77;;;9.70;99.90;;;;;;5073662;28;20553;-62
2024/02/10 07:19:49;;;;;;;8.20;7.40;;;9.70;99.90;;;;;;5083434;28;20423;-62
2024/02/10 07:22:16;;;;;;;8.53;6.93;;;9.80;99.90;;;;;;5063256;28;20420;-63
2024/02/10 07:24:46;;;;;;;8.83;7.20;;;9.80;99.90;;;;;;5088237;28;20499;-63
2024/02/10 07:27:17;;;;;;;8.80;6.70;;;9.70;99.90;;;;;;5085397;28;20976;-63
2024/02/10 07:29:45;;;;;;;9.40;7.90;;;9.80;99.90;;;;;;5091751;28;20502;-62
2024/02/10 07:32:14;;;;;;;7.93;6.87;;;9.80;99.90;;;;;;5081331;28;20926;-63
2024/02/10 07:34:40;;;;;;;8.73;7.37;;;9.80;99.90;;;;;;5072798;28;20411;-64
2024/02/10 07:37:07;;;;;;;9.50;6.83;;;9.90;99.90;;;;;;5072920;28;20416;-63
2024/02/10 07:39:33;;;;;;;9.30;7.80;;;9.90;99.90;;;;;;5079401;28;20413;-61
2024/02/10 07:42:01;;;;;;;8.77;7.20;;;9.90;99.90;;;;;;5083660;28;20430;-62
2024/02/10 07:44:27;;;;;;;7.40;6.40;;;9.90;99.90;;;;;;5090424;28;20807;-68
2024/02/10 07:46:55;;;;;;;8.60;7.20;;;9.90;99.90;;;;;;5086708;28;20459;-65
2024/02/10 07:49:22;;;;;;;11.57;7.57;;;9.90;99.90;;;;;;5085552;28;20435;-64
2024/02/10 07:51:48;;;;;;;11.53;8.60;;;9.90;99.90;;;;;;5080356;28;20437;-63
2024/02/10 07:54:20;;;;;;;9.80;8.63;;;9.90;99.90;;;;;;5086136;28;20427;-62
2024/02/10 07:56:46;;;;;;;13.13;9.27;;;10.00;99.90;;;;;;5058552;28;20420;-62
2024/02/10 07:59:12;;;;;;;10.93;7.03;;;10.00;99.90;;;;;;5091415;28;20427;-63
2024/02/10 08:01:38;;;;;;;8.67;7.23;;;10.00;99.90;;;;;;5089064;28;20776;-63
2024/02/10 08:04:09;;;;;;;8.87;7.77;;;10.00;99.90;;;;;;5091126;28;20409;-64
2024/02/10 08:06:36;;;;;;;10.60;7.87;;;10.00;99.90;;;;;;5085184;28;20216;-62
2024/02/10 08:09:04;;;;;;;9.30;7.20;;;10.10;99.90;;;;;;5093145;28;20901;-63
2024/02/10 08:11:30;;;;;;;11.10;7.90;;;10.20;99.90;;;;;;5090853;28;20414;-63
2024/02/10 08:13:57;;;;;;;8.53;7.00;;;10.10;99.90;;;;;;5086494;28;20508;-63
2024/02/10 08:16:36;;;;;;;9.17;7.83;;;10.20;99.90;;;;;;5089508;28;20407;-64
2024/02/10 08:19:02;;;;;;;8.00;7.23;;;10.20;99.90;;;;;;5090770;28;20450;-65
2024/02/10 08:21:30;;;;;;;9.60;7.90;;;10.30;99.90;;;;;;5086614;28;20443;-65
2024/02/10 08:23:59;;;;;;;9.13;7.80;;;10.40;99.90;;;;;;5093074;28;20177;-65
2024/02/10 08:26:26;;;;;;;24.63;16.63;;;10.30;99.90;;;;;;5088693;28;21022;-61
2024/02/10 08:28:55;;;;;;;21.73;14.80;;;10.40;99.90;;;;;;5076256;28;20543;-63
2024/02/10 08:31:21;;;;;;;11.53;10.40;;;10.40;99.90;;;;;;5074238;28;20436;-64
2024/02/10 08:33:50;;;;;;;8.60;7.80;;;10.40;99.90;;;;;;5073824;28;20918;-63
2024/02/10 08:36:16;;;;;;;9.80;7.67;;;10.40;99.90;;;;;;5074216;28;20408;-64
2024/02/10 08:38:46;;;;;;;8.43;7.50;;;10.60;99.90;;;;;;5090211;28;20450;-62
2024/02/10 08:41:12;;;;;;;10.30;7.60;;;10.70;99.90;;;;;;5082482;28;20409;-64
2024/02/10 08:43:47;;;;;;;9.67;7.43;;;10.60;99.90;;;;;;5089888;28;20419;-63
2024/02/10 08:46:16;;;;;;;9.27;8.13;;;10.60;99.90;;;;;;5085894;28;21029;-61
2024/02/10 08:48:45;;;;;;;8.80;7.80;;;10.70;99.90;;;;;;5095209;28;20842;-62
2024/02/10 08:51:12;;;;;;;11.40;8.90;;;10.70;99.90;;;;;;5085635;28;20408;-64
2024/02/10 08:53:40;;;;;;;12.80;9.10;;;10.60;99.90;;;;;;5081196;28;20469;-62
2024/02/10 08:56:12;;;;;;;8.83;8.00;;;10.70;99.90;;;;;;5082277;28;20476;-63
2024/02/10 08:58:39;;;;;;;10.33;8.43;;;10.70;99.90;;;;;;5082687;28;20455;-64
2024/02/10 09:01:06;;;;;;;12.13;9.30;;;10.80;99.90;;;;;;5082066;28;20413;-63
2024/02/10 09:03:35;;;;;;;10.73;8.50;;;10.80;99.90;;;;;;5086070;28;20494;-63
2024/02/10 09:06:01;;;;;;;11.63;8.07;;;10.80;99.90;;;;;;5082052;28;20444;-63
2024/02/10 09:08:27;;;;;;;9.73;7.37;;;10.90;99.90;;;;;;5079782;28;20439;-64
2024/02/10 09:10:52;;;;;;;11.97;9.13;;;11.00;99.90;;;;;;5093867;28;20174;-61
2024/02/10 09:13:19;;;;;;;11.00;8.57;;;11.20;99.90;;;;;;5091959;28;20162;-64
2024/02/10 09:15:45;;;;;;;12.93;9.70;;;11.40;99.90;;;;;;5090037;28;20604;-64
2024/02/10 09:18:12;;;;;;;10.30;8.47;;;12.00;99.90;;;;;;5093400;28;20464;-65
2024/02/10 09:20:37;;;;;;;12.43;8.50;;;12.10;99.90;;;;;;5093477;28;20180;-66
2024/02/10 09:23:03;;;;;;;8.43;7.00;;;11.70;99.90;;;;;;5093603;28;20453;-64
2024/02/10 09:25:29;;;;;;;10.27;7.60;;;11.70;99.90;;;;;;5093486;28;20197;-64
2024/02/10 09:27:59;;;;;;;9.37;8.30;;;11.70;99.90;;;;;;5093404;28;20203;-62
2024/02/10 09:30:25;;;;;;;7.03;6.33;;;11.70;99.90;;;;;;5093524;28;20179;-64
2024/02/10 09:32:51;;;;;;;7.40;6.37;;;11.50;99.90;;;;;;5093028;28;20797;-64
2024/02/10 09:35:22;;;;;;;6.77;5.57;;;11.30;99.90;;;;;;5093183;28;20415;-65
2024/02/10 09:37:49;;;;;;;7.50;6.77;;;11.30;99.90;;;;;;5093095;28;20456;-64
2024/02/10 09:40:15;;;;;;;6.30;5.80;;;11.40;99.90;;;;;;5093463;28;20443;-65
2024/02/10 09:42:46;;;;;;;6.80;6.20;;;11.50;99.90;;;;;;5093182;28;21018;-65
2024/02/10 09:45:13;;;;;;;7.53;6.73;;;11.50;99.90;;;;;;5093234;28;20190;-64
2024/02/10 09:47:39;;;;;;;7.83;7.10;;;11.50;99.90;;;;;;5093234;28;20481;-68
2024/02/10 09:50:13;;;;;;;8.90;8.00;;;11.60;99.90;;;;;;5092886;28;20421;-62
2024/02/10 09:52:39;;;;;;;6.23;5.73;;;11.60;99.90;;;;;;5093071;28;20405;-64
2024/02/10 09:55:05;;;;;;;8.03;7.20;;;11.70;99.90;;;;;;5090301;28;20412;-67
2024/02/10 09:57:33;;;;;;;9.83;6.10;;;11.90;99.90;;;;;;5092363;28;20816;-65
2024/02/10 09:59:59;;;;;;;8.50;6.50;;;12.10;99.90;;;;;;5092527;28;20404;-64
2024/02/10 10:02:27;;;;;;;7.53;6.73;;;12.00;99.90;;;;;;5092428;28;20411;-65
2024/02/10 10:04:53;;;;;;;7.60;6.03;;;11.90;99.90;;;;;;5092679;28;20475;-65
2024/02/10 10:07:20;;;;;;;6.70;6.10;;;12.10;99.90;;;;;;5092784;28;20419;-64
2024/02/10 10:09:46;;;;;;;7.03;6.33;;;11.90;99.90;;;;;;5092506;28;20338;-65
2024/02/10 10:12:12;;;;;;;8.03;6.07;;;12.00;99.90;;;;;;5092429;28;20754;-64
2024/02/10 10:14:40;;;;;;;6.13;5.53;;;12.00;99.90;;;;;;5086611;28;20409;-65
2024/02/10 10:17:13;;;;;;;7.27;6.63;;;12.00;99.90;;;;;;5092175;28;20170;-64
2024/02/10 10:19:39;;;;;;;6.90;5.50;;;12.00;99.90;;;;;;5092668;28;20501;-65
2024/02/10 10:22:04;;;;;;;8.37;6.03;;;11.90;99.90;;;;;;5092309;28;20939;-65
2024/02/10 10:24:30;;;;;;;6.20;5.50;;;11.90;99.90;;;;;;5091743;28;20204;-64
2024/02/10 10:26:56;;;;;;;7.83;5.60;;;12.00;99.90;;;;;;5092466;28;20218;-65
2024/02/10 10:29:22;;;;;;;5.50;5.00;;;11.90;99.90;;;;;;5092266;28;20343;-64
2024/02/10 10:31:49;;;;;;;8.77;6.63;;;11.80;99.90;;;;;;5092258;28;20492;-63
2024/02/10 10:34:18;;;;;;;6.00;5.10;;;11.80;99.90;;;;;;5092269;28;20256;-64
2024/02/10 10:36:48;;;;;;;6.13;5.40;;;11.80;99.90;;;;;;5092394;28;20417;-63
2024/02/10 10:39:14;;;;;;;5.63;5.03;;;11.80;99.90;;;;;;5090707;28;20439;-65
2024/02/10 10:41:42;;;;;;;6.70;5.53;;;12.00;99.90;;;;;;5092142;28;20503;-63
2024/02/10 10:44:09;;;;;;;6.10;5.50;;;12.00;99.90;;;;;;5091817;28;20936;-64
2024/02/10 10:46:35;;;;;;;5.60;4.93;;;11.90;99.90;;;;;;5092209;28;20820;-64
2024/02/10 10:49:01;;;;;;;6.47;5.00;;;12.00;99.90;;;;;;5091872;28;20446;-64
2024/02/10 10:51:37;;;;;;;7.43;6.10;;;12.10;99.90;;;;;;5092086;28;20206;-63
2024/02/10 10:54:05;;;;;;;8.33;6.37;;;12.10;99.90;;;;;;5091962;28;20847;-64
2024/02/10 10:56:32;;;;;;;7.80;5.40;;;12.20;99.90;;;;;;5095205;28;20412;-63
2024/02/10 10:59:01;;;;;;;6.60;5.90;;;12.30;99.90;;;;;;5091952;28;21053;-62
2024/02/10 11:01:29;;;;;;;6.93;5.50;;;12.30;99.90;;;;;;5091875;28;20409;-64
2024/02/10 11:04:01;;;;;;;7.43;5.23;;;12.50;99.90;;;;;;5091052;28;20485;-62
2024/02/10 11:06:32;;;;;;;8.53;5.13;;;12.50;99.90;;;;;;5084480;28;20463;-63
2024/02/10 11:08:58;;;;;;;7.67;4.90;;;12.60;99.90;;;;;;5091415;28;20436;-63
2024/02/10 11:11:24;;;;;;;6.47;5.10;;;12.70;99.90;;;;;;5091356;28;20429;-64
2024/02/10 11:13:49;;;;;;;5.20;4.80;;;12.70;99.90;;;;;;5085014;28;20456;-64
2024/02/10 11:16:15;;;;;;;6.53;5.27;;;12.70;99.90;;;;;;5091192;28;20605;-63
2024/02/10 11:18:44;;;;;;;6.20;4.60;;;12.60;99.90;;;;;;5091513;28;20194;-62
2024/02/10 11:21:16;;;;;;;5.73;5.23;;;12.40;99.90;;;;;;5091650;28;20178;-63
2024/02/10 11:23:41;;;;;;;6.50;4.93;;;12.40;99.90;;;;;;5091156;28;20917;-64
2024/02/10 11:26:10;;;;;;;5.30;4.70;;;12.60;99.90;;;;;;5090765;28;20464;-63
2024/02/10 11:28:37;;;;;;;5.17;4.67;;;12.60;99.90;;;;;;5091002;28;20213;-64
2024/02/10 11:31:10;;;;;;;5.27;4.77;;;12.60;99.90;;;;;;5091066;28;20458;-63
2024/02/10 11:33:38;;;;;;;5.47;4.97;;;12.50;99.90;;;;;;5091063;28;20415;-60
2024/02/10 11:36:08;;;;;;;5.70;5.07;;;12.60;99.90;;;;;;5090334;28;20428;-63
2024/02/10 11:38:35;;;;;;;4.90;4.47;;;12.60;99.90;;;;;;5091643;28;20823;-64
2024/02/10 11:41:01;;;;;;;5.83;5.33;;;12.60;99.90;;;;;;5091101;28;20421;-62
2024/02/10 11:43:27;;;;;;;7.33;5.33;;;12.70;99.90;;;;;;5090733;28;20447;-62
2024/02/10 11:45:53;;;;;;;5.83;4.63;;;12.90;99.90;;;;;;5091025;28;20495;-64
2024/02/10 11:48:19;;;;;;;6.80;5.23;;;12.90;99.90;;;;;;5091064;28;20202;-64
2024/02/10 11:50:45;;;;;;;7.93;4.73;;;13.00;99.90;;;;;;5065343;28;20483;-63
2024/02/10 11:53:19;;;;;;;9.30;5.60;;;12.60;99.90;;;;;;5090737;28;20484;-64
2024/02/10 11:55:47;;;;;;;8.10;5.10;;;12.70;99.90;;;;;;5094197;28;20477;-64
2024/02/10 11:58:18;;;;;;;7.37;5.30;;;13.00;99.90;;;;;;5090767;28;20942;-64
2024/02/10 12:00:47;;;;;;;5.67;5.17;;;12.90;99.90;;;;;;5090779;28;20951;-62
2024/02/10 12:03:15;;;;;;;7.60;5.07;;;13.00;99.90;;;;;;5090614;28;20452;-64
2024/02/10 12:05:42;;;;;;;5.50;4.80;;;13.20;99.90;;;;;;5090888;28;20452;-63
2024/02/10 12:08:09;;;;;;;5.50;4.70;;;13.10;99.90;;;;;;5083188;28;20438;-63
2024/02/10 12:10:38;;;;;;;6.50;4.33;;;13.40;99.90;;;;;;5090790;28;20417;-63
2024/02/10 12:13:05;;;;;;;5.10;4.60;;;13.30;99.90;;;;;;5090589;28;21007;-61
2024/02/10 12:15:32;;;;;;;4.70;3.83;;;13.40;99.90;;;;;;5090820;28;20900;-64
2024/02/10 12:18:01;;;;;;;4.60;3.80;;;13.30;99.90;;;;;;5090334;28;20441;-64
2024/02/10 12:20:27;;;;;;;6.33;3.93;;;13.30;99.90;;;;;;5090813;28;20417;-63
2024/02/10 12:22:53;;;;;;;5.17;4.13;;;13.50;99.90;;;;;;5090655;28;20415;-64
2024/02/10 12:25:22;;;;;;;6.63;3.83;;;13.60;99.90;;;;;;5090497;28;20450;-63
2024/02/10 12:27:51;;;;;;;6.93;4.20;;;13.50;99.90;;;;;;5090284;28;20212;-64
2024/02/10 12:30:18;;;;;;;10.07;5.30;;;13.50;99.90;;;;;;5090801;28;20418;-63
2024/02/10 12:32:45;;;;;;;7.07;5.13;;;13.70;99.90;;;;;;5090630;28;20558;-62
2024/02/10 12:35:16;;;;;;;5.80;5.30;;;13.90;99.90;;;;;;5090628;28;20481;-62
2024/02/10 12:37:43;;;;;;;5.73;4.37;;;13.60;99.90;;;;;;5090793;28;20443;-64
2024/02/10 12:40:10;;;;;;;6.70;5.17;;;13.70;99.90;;;;;;5086787;28;20421;-66
2024/02/10 12:42:36;;;;;;;7.70;5.80;;;13.50;99.90;;;;;;5086340;28;20412;-66
2024/02/10 12:45:02;;;;;;;6.13;5.50;;;13.90;99.90;;;;;;5088658;28;20436;-65
2024/02/10 12:47:28;;;;;;;72.83;39.07;;;14.00;99.90;;;;;;5092456;28;20564;-65